sensor_id;sensor_type;location;lat;lon;timestamp;P1;durP1;ratioP1;P2;durP2;ratioP2
40254;SDS011;25973;52.368;4.940;2022-12-18T00:01:01;52.08;;;17.95;;
40254;SDS011;25973;52.368;4.940;2022-12-18T00:03:31;55.47;;;17.17;;
40254;SDS011;25973;52.368;4.940;2022-12-18T00:06:01;54.38;;;16.73;;
40254;SDS011;25973;52.368;4.940;2022-12-18T00:08:27;56.13;;;18.90;;
40254;SDS011;25973;52.368;4.940;2022-12-18T00:10:53;61.17;;;16.77;;
40254;SDS011;25973;52.368;4.940;2022-12-18T00:13:18;57.15;;;17.15;;
40254;SDS011;25973;52.368;4.940;2022-12-18T00:15:44;58.33;;;16.92;;
40254;SDS011;25973;52.368;4.940;2022-12-18T00:18:09;57.67;;;17.25;;
40254;SDS011;25973;52.368;4.940;2022-12-18T00:20:36;61.92;;;16.45;;
40254;SDS011;25973;52.368;4.940;2022-12-18T00:23:03;50.97;;;16.85;;
40254;SDS011;25973;52.368;4.940;2022-12-18T00:25:29;52.78;;;15.68;;
40254;SDS011;25973;52.368;4.940;2022-12-18T00:27:56;46.05;;;14.77;;
40254;SDS011;25973;52.368;4.940;2022-12-18T00:30:22;53.08;;;16.77;;
40254;SDS011;25973;52.368;4.940;2022-12-18T00:32:47;49.42;;;16.42;;
40254;SDS011;25973;52.368;4.940;2022-12-18T00:35:13;51.40;;;16.02;;
40254;SDS011;25973;52.368;4.940;2022-12-18T00:37:39;50.90;;;14.90;;
40254;SDS011;25973;52.368;4.940;2022-12-18T00:40:05;47.78;;;14.75;;
40254;SDS011;25973;52.368;4.940;2022-12-18T00:42:31;54.42;;;14.93;;
40254;SDS011;25973;52.368;4.940;2022-12-18T00:45:15;55.17;;;14.23;;
40254;SDS011;25973;52.368;4.940;2022-12-18T00:47:40;46.42;;;15.63;;
40254;SDS011;25973;52.368;4.940;2022-12-18T00:50:06;52.22;;;16.13;;
40254;SDS011;25973;52.368;4.940;2022-12-18T00:52:32;52.75;;;15.50;;
40254;SDS011;25973;52.368;4.940;2022-12-18T00:54:58;52.92;;;16.75;;
40254;SDS011;25973;52.368;4.940;2022-12-18T00:57:23;53.67;;;15.15;;
40254;SDS011;25973;52.368;4.940;2022-12-18T00:59:49;50.42;;;15.07;;
40254;SDS011;25973;52.368;4.940;2022-12-18T01:02:14;53.67;;;13.57;;
40254;SDS011;25973;52.368;4.940;2022-12-18T01:04:40;53.88;;;16.48;;
40254;SDS011;25973;52.368;4.940;2022-12-18T01:07:05;46.03;;;13.70;;
40254;SDS011;25973;52.368;4.940;2022-12-18T01:09:31;53.17;;;14.48;;
40254;SDS011;25973;52.368;4.940;2022-12-18T01:11:59;46.90;;;14.63;;
40254;SDS011;25973;52.368;4.940;2022-12-18T01:14:25;53.00;;;15.20;;
40254;SDS011;25973;52.368;4.940;2022-12-18T01:16:51;49.85;;;14.93;;
40254;SDS011;25973;52.368;4.940;2022-12-18T01:19:16;51.63;;;15.45;;
40254;SDS011;25973;52.368;4.940;2022-12-18T01:21:42;54.17;;;17.08;;
40254;SDS011;25973;52.368;4.940;2022-12-18T01:24:09;48.65;;;16.23;;
40254;SDS011;25973;52.368;4.940;2022-12-18T01:26:36;48.83;;;15.45;;
40254;SDS011;25973;52.368;4.940;2022-12-18T01:29:02;58.30;;;18.38;;
40254;SDS011;25973;52.368;4.940;2022-12-18T01:31:29;49.90;;;14.95;;
40254;SDS011;25973;52.368;4.940;2022-12-18T01:33:57;55.75;;;17.40;;
40254;SDS011;25973;52.368;4.940;2022-12-18T01:36:27;94.80;;;28.95;;
40254;SDS011;25973;52.368;4.940;2022-12-18T01:38:55;63.13;;;19.23;;
40254;SDS011;25973;52.368;4.940;2022-12-18T01:41:22;87.95;;;27.40;;
40254;SDS011;25973;52.368;4.940;2022-12-18T01:43:54;40.90;;;16.42;;
40254;SDS011;25973;52.368;4.940;2022-12-18T01:46:24;40.72;;;13.85;;
40254;SDS011;25973;52.368;4.940;2022-12-18T01:48:58;50.83;;;15.15;;
40254;SDS011;25973;52.368;4.940;2022-12-18T01:51:26;53.15;;;15.43;;
40254;SDS011;25973;52.368;4.940;2022-12-18T01:53:53;44.78;;;14.98;;
40254;SDS011;25973;52.368;4.940;2022-12-18T01:56:19;55.65;;;15.18;;
40254;SDS011;25973;52.368;4.940;2022-12-18T01:59:04;60.85;;;14.75;;
40254;SDS011;25973;52.368;4.940;2022-12-18T02:01:33;46.90;;;14.70;;
40254;SDS011;25973;52.368;4.940;2022-12-18T02:04:21;43.65;;;14.18;;
40254;SDS011;25973;52.368;4.940;2022-12-18T02:07:19;46.25;;;14.73;;
40254;SDS011;25973;52.368;4.940;2022-12-18T02:09:48;48.53;;;13.93;;
40254;SDS011;25973;52.368;4.940;2022-12-18T02:12:21;46.63;;;14.07;;
40254;SDS011;25973;52.368;4.940;2022-12-18T02:15:00;45.30;;;16.48;;
40254;SDS011;25973;52.368;4.940;2022-12-18T02:17:44;42.00;;;13.77;;
40254;SDS011;25973;52.368;4.940;2022-12-18T02:20:21;58.97;;;14.93;;
40254;SDS011;25973;52.368;4.940;2022-12-18T02:23:18;54.10;;;12.80;;
40254;SDS011;25973;52.368;4.940;2022-12-18T02:26:06;47.22;;;14.02;;
40254;SDS011;25973;52.368;4.940;2022-12-18T02:28:53;45.08;;;13.30;;
40254;SDS011;25973;52.368;4.940;2022-12-18T02:31:42;48.05;;;15.40;;
40254;SDS011;25973;52.368;4.940;2022-12-18T02:34:16;49.20;;;14.85;;
40254;SDS011;25973;52.368;4.940;2022-12-18T02:36:43;43.17;;;13.93;;
40254;SDS011;25973;52.368;4.940;2022-12-18T02:39:10;39.80;;;12.90;;
40254;SDS011;25973;52.368;4.940;2022-12-18T02:41:37;48.78;;;14.52;;
40254;SDS011;25973;52.368;4.940;2022-12-18T02:44:07;44.70;;;14.07;;
40254;SDS011;25973;52.368;4.940;2022-12-18T02:46:36;45.25;;;13.43;;
40254;SDS011;25973;52.368;4.940;2022-12-18T02:51:58;50.97;;;13.30;;
40254;SDS011;25973;52.368;4.940;2022-12-18T03:00:35;35.53;;;14.30;;
40254;SDS011;25973;52.368;4.940;2022-12-18T03:03:10;36.25;;;13.98;;
40254;SDS011;25973;52.368;4.940;2022-12-18T03:05:55;29.10;;;12.40;;
40254;SDS011;25973;52.368;4.940;2022-12-18T03:08:26;39.13;;;13.77;;
40254;SDS011;25973;52.368;4.940;2022-12-18T03:11:12;49.67;;;13.95;;
40254;SDS011;25973;52.368;4.940;2022-12-18T03:13:46;47.78;;;16.45;;
40254;SDS011;25973;52.368;4.940;2022-12-18T03:16:18;50.15;;;14.27;;
40254;SDS011;25973;52.368;4.940;2022-12-18T03:18:53;42.75;;;15.35;;
40254;SDS011;25973;52.368;4.940;2022-12-18T03:21:23;41.95;;;14.10;;
40254;SDS011;25973;52.368;4.940;2022-12-18T03:23:55;48.10;;;14.00;;
40254;SDS011;25973;52.368;4.940;2022-12-18T03:26:22;41.25;;;14.73;;
40254;SDS011;25973;52.368;4.940;2022-12-18T03:28:55;38.95;;;13.93;;
40254;SDS011;25973;52.368;4.940;2022-12-18T03:31:24;41.72;;;13.75;;
40254;SDS011;25973;52.368;4.940;2022-12-18T03:33:54;35.15;;;13.10;;
40254;SDS011;25973;52.368;4.940;2022-12-18T03:36:22;44.45;;;14.07;;
40254;SDS011;25973;52.368;4.940;2022-12-18T03:38:49;40.13;;;14.63;;
40254;SDS011;25973;52.368;4.940;2022-12-18T03:41:35;48.72;;;13.48;;
40254;SDS011;25973;52.368;4.940;2022-12-18T03:47:27;37.33;;;13.20;;
40254;SDS011;25973;52.368;4.940;2022-12-18T03:50:43;36.75;;;13.02;;
40254;SDS011;25973;52.368;4.940;2022-12-18T03:55:51;39.00;;;14.02;;
40254;SDS011;25973;52.368;4.940;2022-12-18T03:58:19;41.25;;;13.10;;
40254;SDS011;25973;52.368;4.940;2022-12-18T04:00:47;41.40;;;14.05;;
40254;SDS011;25973;52.368;4.940;2022-12-18T04:03:16;39.85;;;14.15;;
40254;SDS011;25973;52.368;4.940;2022-12-18T04:05:44;37.10;;;13.25;;
40254;SDS011;25973;52.368;4.940;2022-12-18T04:08:12;36.45;;;13.38;;
40254;SDS011;25973;52.368;4.940;2022-12-18T04:10:38;38.60;;;13.48;;
40254;SDS011;25973;52.368;4.940;2022-12-18T04:13:03;39.58;;;12.25;;
40254;SDS011;25973;52.368;4.940;2022-12-18T04:15:29;33.65;;;13.10;;
40254;SDS011;25973;52.368;4.940;2022-12-18T04:17:56;44.00;;;15.10;;
40254;SDS011;25973;52.368;4.940;2022-12-18T04:20:21;40.33;;;13.75;;
40254;SDS011;25973;52.368;4.940;2022-12-18T04:22:47;50.60;;;13.02;;
40254;SDS011;25973;52.368;4.940;2022-12-18T04:25:13;41.90;;;14.60;;
40254;SDS011;25973;52.368;4.940;2022-12-18T04:27:38;39.95;;;13.68;;
40254;SDS011;25973;52.368;4.940;2022-12-18T04:30:04;42.42;;;14.43;;
40254;SDS011;25973;52.368;4.940;2022-12-18T04:32:30;52.97;;;14.77;;
40254;SDS011;25973;52.368;4.940;2022-12-18T04:34:57;42.28;;;13.77;;
40254;SDS011;25973;52.368;4.940;2022-12-18T04:37:23;44.08;;;15.38;;
40254;SDS011;25973;52.368;4.940;2022-12-18T04:39:48;44.70;;;15.23;;
40254;SDS011;25973;52.368;4.940;2022-12-18T04:42:14;48.60;;;15.55;;
40254;SDS011;25973;52.368;4.940;2022-12-18T04:44:40;44.05;;;14.80;;
40254;SDS011;25973;52.368;4.940;2022-12-18T04:47:05;43.92;;;14.27;;
40254;SDS011;25973;52.368;4.940;2022-12-18T04:49:31;47.60;;;13.95;;
40254;SDS011;25973;52.368;4.940;2022-12-18T04:51:56;35.03;;;14.07;;
40254;SDS011;25973;52.368;4.940;2022-12-18T04:54:24;37.13;;;13.32;;
40254;SDS011;25973;52.368;4.940;2022-12-18T04:56:50;42.03;;;14.27;;
40254;SDS011;25973;52.368;4.940;2022-12-18T04:59:16;42.90;;;14.10;;
40254;SDS011;25973;52.368;4.940;2022-12-18T05:01:41;34.00;;;12.32;;
40254;SDS011;25973;52.368;4.940;2022-12-18T05:04:07;43.40;;;15.70;;
40254;SDS011;25973;52.368;4.940;2022-12-18T05:06:32;31.30;;;12.70;;
40254;SDS011;25973;52.368;4.940;2022-12-18T05:08:58;41.15;;;13.40;;
40254;SDS011;25973;52.368;4.940;2022-12-18T05:11:23;36.25;;;11.90;;
40254;SDS011;25973;52.368;4.940;2022-12-18T05:13:49;46.40;;;13.90;;
40254;SDS011;25973;52.368;4.940;2022-12-18T05:16:15;36.70;;;12.75;;
40254;SDS011;25973;52.368;4.940;2022-12-18T05:18:41;39.53;;;14.60;;
40254;SDS011;25973;52.368;4.940;2022-12-18T05:21:06;34.80;;;11.68;;
40254;SDS011;25973;52.368;4.940;2022-12-18T05:23:35;42.22;;;12.18;;
40254;SDS011;25973;52.368;4.940;2022-12-18T05:26:01;39.15;;;13.35;;
40254;SDS011;25973;52.368;4.940;2022-12-18T05:28:30;44.58;;;13.23;;
40254;SDS011;25973;52.368;4.940;2022-12-18T05:30:58;42.33;;;14.40;;
40254;SDS011;25973;52.368;4.940;2022-12-18T05:33:26;33.45;;;12.52;;
40254;SDS011;25973;52.368;4.940;2022-12-18T05:35:54;34.75;;;13.63;;
40254;SDS011;25973;52.368;4.940;2022-12-18T05:38:27;44.78;;;14.73;;
40254;SDS011;25973;52.368;4.940;2022-12-18T05:40:53;42.45;;;12.77;;
40254;SDS011;25973;52.368;4.940;2022-12-18T05:43:20;32.63;;;11.57;;
40254;SDS011;25973;52.368;4.940;2022-12-18T05:45:47;35.08;;;12.82;;
40254;SDS011;25973;52.368;4.940;2022-12-18T05:48:13;38.42;;;14.68;;
40254;SDS011;25973;52.368;4.940;2022-12-18T05:50:40;42.42;;;13.38;;
40254;SDS011;25973;52.368;4.940;2022-12-18T05:53:07;35.55;;;13.98;;
40254;SDS011;25973;52.368;4.940;2022-12-18T05:55:34;41.28;;;12.88;;
40254;SDS011;25973;52.368;4.940;2022-12-18T05:58:01;33.83;;;12.32;;
40254;SDS011;25973;52.368;4.940;2022-12-18T06:00:28;36.20;;;13.88;;
40254;SDS011;25973;52.368;4.940;2022-12-18T06:02:54;33.42;;;13.40;;
40254;SDS011;25973;52.368;4.940;2022-12-18T06:05:19;37.67;;;12.55;;
40254;SDS011;25973;52.368;4.940;2022-12-18T06:07:45;36.47;;;13.05;;
40254;SDS011;25973;52.368;4.940;2022-12-18T06:10:11;29.73;;;11.98;;
40254;SDS011;25973;52.368;4.940;2022-12-18T06:12:36;34.58;;;11.55;;
40254;SDS011;25973;52.368;4.940;2022-12-18T06:15:02;33.85;;;11.65;;
40254;SDS011;25973;52.368;4.940;2022-12-18T06:17:29;34.80;;;11.88;;
40254;SDS011;25973;52.368;4.940;2022-12-18T06:19:55;31.85;;;12.88;;
40254;SDS011;25973;52.368;4.940;2022-12-18T06:22:24;37.47;;;13.70;;
40254;SDS011;25973;52.368;4.940;2022-12-18T06:24:50;28.40;;;12.40;;
40254;SDS011;25973;52.368;4.940;2022-12-18T06:27:15;33.83;;;11.18;;
40254;SDS011;25973;52.368;4.940;2022-12-18T06:29:41;22.65;;;10.55;;
40254;SDS011;25973;52.368;4.940;2022-12-18T06:32:07;27.17;;;11.50;;
40254;SDS011;25973;52.368;4.940;2022-12-18T06:34:33;23.65;;;10.02;;
40254;SDS011;25973;52.368;4.940;2022-12-18T06:36:59;28.08;;;10.02;;
40254;SDS011;25973;52.368;4.940;2022-12-18T06:39:24;27.38;;;9.63;;
40254;SDS011;25973;52.368;4.940;2022-12-18T06:41:52;21.13;;;9.55;;
40254;SDS011;25973;52.368;4.940;2022-12-18T06:44:18;29.40;;;9.65;;
40254;SDS011;25973;52.368;4.940;2022-12-18T06:46:43;23.25;;;9.80;;
40254;SDS011;25973;52.368;4.940;2022-12-18T06:49:09;18.88;;;8.55;;
40254;SDS011;25973;52.368;4.940;2022-12-18T06:51:35;26.83;;;9.65;;
40254;SDS011;25973;52.368;4.940;2022-12-18T06:54:00;27.00;;;9.70;;
40254;SDS011;25973;52.368;4.940;2022-12-18T06:56:26;25.00;;;9.10;;
40254;SDS011;25973;52.368;4.940;2022-12-18T06:58:53;21.48;;;8.32;;
40254;SDS011;25973;52.368;4.940;2022-12-18T07:01:18;26.17;;;8.80;;
40254;SDS011;25973;52.368;4.940;2022-12-18T07:03:44;25.40;;;8.40;;
40254;SDS011;25973;52.368;4.940;2022-12-18T07:06:13;22.45;;;8.10;;
40254;SDS011;25973;52.368;4.940;2022-12-18T07:08:40;27.70;;;8.13;;
40254;SDS011;25973;52.368;4.940;2022-12-18T07:11:05;23.35;;;9.10;;
40254;SDS011;25973;52.368;4.940;2022-12-18T07:13:31;25.92;;;9.82;;
40254;SDS011;25973;52.368;4.940;2022-12-18T07:16:03;18.65;;;7.95;;
40254;SDS011;25973;52.368;4.940;2022-12-18T07:18:33;27.42;;;8.18;;
40254;SDS011;25973;52.368;4.940;2022-12-18T07:21:02;23.25;;;6.97;;
40254;SDS011;25973;52.368;4.940;2022-12-18T07:23:29;20.08;;;7.60;;
40254;SDS011;25973;52.368;4.940;2022-12-18T07:25:55;19.17;;;8.27;;
40254;SDS011;25973;52.368;4.940;2022-12-18T07:28:20;21.25;;;7.97;;
40254;SDS011;25973;52.368;4.940;2022-12-18T07:30:46;17.98;;;8.02;;
40254;SDS011;25973;52.368;4.940;2022-12-18T07:33:11;17.67;;;8.32;;
40254;SDS011;25973;52.368;4.940;2022-12-18T07:35:37;19.15;;;7.32;;
40254;SDS011;25973;52.368;4.940;2022-12-18T07:38:02;15.68;;;8.10;;
40254;SDS011;25973;52.368;4.940;2022-12-18T07:40:28;14.88;;;8.15;;
40254;SDS011;25973;52.368;4.940;2022-12-18T07:42:53;16.80;;;7.03;;
40254;SDS011;25973;52.368;4.940;2022-12-18T07:45:19;15.75;;;6.90;;
40254;SDS011;25973;52.368;4.940;2022-12-18T07:47:44;19.13;;;6.70;;
40254;SDS011;25973;52.368;4.940;2022-12-18T07:50:10;19.15;;;7.13;;
40254;SDS011;25973;52.368;4.940;2022-12-18T07:52:36;16.85;;;7.07;;
40254;SDS011;25973;52.368;4.940;2022-12-18T07:55:01;20.75;;;7.00;;
40254;SDS011;25973;52.368;4.940;2022-12-18T07:57:27;14.93;;;6.15;;
40254;SDS011;25973;52.368;4.940;2022-12-18T07:59:53;16.90;;;6.65;;
40254;SDS011;25973;52.368;4.940;2022-12-18T08:02:18;24.25;;;8.60;;
40254;SDS011;25973;52.368;4.940;2022-12-18T08:04:44;21.45;;;8.20;;
40254;SDS011;25973;52.368;4.940;2022-12-18T08:07:09;19.52;;;7.07;;
40254;SDS011;25973;52.368;4.940;2022-12-18T08:09:35;11.57;;;5.07;;
40254;SDS011;25973;52.368;4.940;2022-12-18T08:12:00;18.85;;;7.30;;
40254;SDS011;25973;52.368;4.940;2022-12-18T08:14:26;15.30;;;6.93;;
40254;SDS011;25973;52.368;4.940;2022-12-18T08:16:51;14.75;;;6.03;;
40254;SDS011;25973;52.368;4.940;2022-12-18T08:19:20;19.10;;;7.40;;
40254;SDS011;25973;52.368;4.940;2022-12-18T08:21:45;17.50;;;6.28;;
40254;SDS011;25973;52.368;4.940;2022-12-18T08:24:11;15.82;;;7.68;;
40254;SDS011;25973;52.368;4.940;2022-12-18T08:26:36;18.23;;;7.20;;
40254;SDS011;25973;52.368;4.940;2022-12-18T08:29:02;18.27;;;7.05;;
40254;SDS011;25973;52.368;4.940;2022-12-18T08:31:28;16.52;;;6.05;;
40254;SDS011;25973;52.368;4.940;2022-12-18T08:33:55;13.90;;;6.85;;
40254;SDS011;25973;52.368;4.940;2022-12-18T08:36:21;15.48;;;6.65;;
40254;SDS011;25973;52.368;4.940;2022-12-18T08:38:48;16.92;;;6.63;;
40254;SDS011;25973;52.368;4.940;2022-12-18T08:41:14;15.18;;;6.50;;
40254;SDS011;25973;52.368;4.940;2022-12-18T08:43:41;16.35;;;6.72;;
40254;SDS011;25973;52.368;4.940;2022-12-18T08:46:26;15.52;;;6.40;;
40254;SDS011;25973;52.368;4.940;2022-12-18T08:48:57;15.88;;;5.90;;
40254;SDS011;25973;52.368;4.940;2022-12-18T08:51:22;12.02;;;6.68;;
40254;SDS011;25973;52.368;4.940;2022-12-18T08:53:48;20.38;;;7.95;;
40254;SDS011;25973;52.368;4.940;2022-12-18T08:56:14;14.95;;;6.05;;
40254;SDS011;25973;52.368;4.940;2022-12-18T08:58:40;20.60;;;7.20;;
40254;SDS011;25973;52.368;4.940;2022-12-18T09:01:08;22.27;;;7.32;;
40254;SDS011;25973;52.368;4.940;2022-12-18T09:03:36;15.98;;;6.82;;
40254;SDS011;25973;52.368;4.940;2022-12-18T09:06:02;12.18;;;5.25;;
40254;SDS011;25973;52.368;4.940;2022-12-18T09:08:27;13.95;;;6.55;;
40254;SDS011;25973;52.368;4.940;2022-12-18T09:10:53;12.80;;;6.22;;
40254;SDS011;25973;52.368;4.940;2022-12-18T09:13:20;17.73;;;6.85;;
40254;SDS011;25973;52.368;4.940;2022-12-18T09:15:47;15.02;;;6.47;;
40254;SDS011;25973;52.368;4.940;2022-12-18T09:18:15;16.00;;;7.05;;
40254;SDS011;25973;52.368;4.940;2022-12-18T09:20:42;19.40;;;6.82;;
40254;SDS011;25973;52.368;4.940;2022-12-18T09:23:08;12.07;;;5.63;;
40254;SDS011;25973;52.368;4.940;2022-12-18T09:25:35;10.80;;;5.93;;
40254;SDS011;25973;52.368;4.940;2022-12-18T09:28:17;18.52;;;6.63;;
40254;SDS011;25973;52.368;4.940;2022-12-18T09:30:45;12.13;;;5.85;;
40254;SDS011;25973;52.368;4.940;2022-12-18T09:33:12;12.82;;;6.07;;
40254;SDS011;25973;52.368;4.940;2022-12-18T09:35:38;12.18;;;6.05;;
40254;SDS011;25973;52.368;4.940;2022-12-18T09:38:05;17.33;;;6.93;;
40254;SDS011;25973;52.368;4.940;2022-12-18T09:40:35;17.63;;;7.70;;
40254;SDS011;25973;52.368;4.940;2022-12-18T09:43:06;19.83;;;6.35;;
40254;SDS011;25973;52.368;4.940;2022-12-18T09:45:43;19.30;;;5.88;;
40254;SDS011;25973;52.368;4.940;2022-12-18T09:48:18;14.57;;;6.18;;
40254;SDS011;25973;52.368;4.940;2022-12-18T09:50:48;12.48;;;5.80;;
40254;SDS011;25973;52.368;4.940;2022-12-18T09:53:17;13.15;;;6.15;;
40254;SDS011;25973;52.368;4.940;2022-12-18T09:55:49;14.30;;;6.72;;
40254;SDS011;25973;52.368;4.940;2022-12-18T09:58:20;13.35;;;6.20;;
40254;SDS011;25973;52.368;4.940;2022-12-18T10:01:10;17.38;;;7.70;;
40254;SDS011;25973;52.368;4.940;2022-12-18T10:03:40;13.50;;;6.28;;
40254;SDS011;25973;52.368;4.940;2022-12-18T10:06:07;13.25;;;5.75;;
40254;SDS011;25973;52.368;4.940;2022-12-18T10:22:03;14.70;;;6.05;;
40254;SDS011;25973;52.368;4.940;2022-12-18T10:24:47;14.18;;;6.35;;
40254;SDS011;25973;52.368;4.940;2022-12-18T10:27:25;15.77;;;6.90;;
40254;SDS011;25973;52.368;4.940;2022-12-18T10:29:52;17.25;;;6.70;;
40254;SDS011;25973;52.368;4.940;2022-12-18T10:32:20;17.27;;;7.07;;
40254;SDS011;25973;52.368;4.940;2022-12-18T10:34:49;13.45;;;6.45;;
40254;SDS011;25973;52.368;4.940;2022-12-18T10:37:17;16.35;;;6.68;;
40254;SDS011;25973;52.368;4.940;2022-12-18T10:39:44;15.00;;;6.55;;
40254;SDS011;25973;52.368;4.940;2022-12-18T10:42:17;20.52;;;7.13;;
40254;SDS011;25973;52.368;4.940;2022-12-18T10:44:44;13.63;;;7.35;;
40254;SDS011;25973;52.368;4.940;2022-12-18T10:47:17;13.38;;;5.85;;
40254;SDS011;25973;52.368;4.940;2022-12-18T10:49:48;14.63;;;6.85;;
40254;SDS011;25973;52.368;4.940;2022-12-18T10:52:27;23.20;;;6.60;;
40254;SDS011;25973;52.368;4.940;2022-12-18T10:55:01;15.52;;;7.65;;
40254;SDS011;25973;52.368;4.940;2022-12-18T10:57:38;17.77;;;6.72;;
40254;SDS011;25973;52.368;4.940;2022-12-18T11:00:27;14.55;;;6.25;;
40254;SDS011;25973;52.368;4.940;2022-12-18T11:02:56;11.73;;;5.65;;
40254;SDS011;25973;52.368;4.940;2022-12-18T11:07:55;13.55;;;6.30;;
40254;SDS011;25973;52.368;4.940;2022-12-18T11:10:25;14.88;;;6.47;;
40254;SDS011;25973;52.368;4.940;2022-12-18T11:13:20;14.63;;;6.03;;
40254;SDS011;25973;52.368;4.940;2022-12-18T11:15:49;15.35;;;5.95;;
40254;SDS011;25973;52.368;4.940;2022-12-18T11:18:19;19.05;;;7.30;;
40254;SDS011;25973;52.368;4.940;2022-12-18T11:21:26;12.55;;;6.65;;
40254;SDS011;25973;52.368;4.940;2022-12-18T11:23:46;19.13;;;6.88;;
40254;SDS011;25973;52.368;4.940;2022-12-18T11:26:17;16.38;;;6.32;;
40254;SDS011;25973;52.368;4.940;2022-12-18T11:28:44;12.82;;;5.65;;
40254;SDS011;25973;52.368;4.940;2022-12-18T11:31:28;10.70;;;6.38;;
40254;SDS011;25973;52.368;4.940;2022-12-18T11:36:25;12.68;;;5.80;;
40254;SDS011;25973;52.368;4.940;2022-12-18T11:38:55;12.88;;;5.93;;
40254;SDS011;25973;52.368;4.940;2022-12-18T11:41:32;13.80;;;6.13;;
40254;SDS011;25973;52.368;4.940;2022-12-18T11:44:24;13.43;;;5.55;;
40254;SDS011;25973;52.368;4.940;2022-12-18T11:47:03;18.10;;;7.40;;
40254;SDS011;25973;52.368;4.940;2022-12-18T11:49:44;12.75;;;6.13;;
40254;SDS011;25973;52.368;4.940;2022-12-18T11:54:41;10.55;;;5.13;;
40254;SDS011;25973;52.368;4.940;2022-12-18T11:57:14;13.45;;;6.13;;
40254;SDS011;25973;52.368;4.940;2022-12-18T12:00:11;15.63;;;5.90;;
40254;SDS011;25973;52.368;4.940;2022-12-18T12:16:44;12.88;;;5.85;;
40254;SDS011;25973;52.368;4.940;2022-12-18T12:19:24;18.70;;;7.30;;
40254;SDS011;25973;52.368;4.940;2022-12-18T12:24:44;14.77;;;5.60;;
40254;SDS011;25973;52.368;4.940;2022-12-18T12:30:27;11.82;;;5.00;;
40254;SDS011;25973;52.368;4.940;2022-12-18T12:35:46;11.30;;;5.20;;
40254;SDS011;25973;52.368;4.940;2022-12-18T12:38:37;14.07;;;6.00;;
40254;SDS011;25973;52.368;4.940;2022-12-18T12:41:12;16.42;;;6.13;;
40254;SDS011;25973;52.368;4.940;2022-12-18T12:44:01;19.00;;;5.70;;
40254;SDS011;25973;52.368;4.940;2022-12-18T12:49:00;9.30;;;4.57;;
40254;SDS011;25973;52.368;4.940;2022-12-18T12:51:33;12.40;;;5.90;;
40254;SDS011;25973;52.368;4.940;2022-12-18T12:54:02;15.50;;;7.00;;
40254;SDS011;25973;52.368;4.940;2022-12-18T12:56:44;14.02;;;6.22;;
40254;SDS011;25973;52.368;4.940;2022-12-18T13:02:31;14.90;;;6.93;;
40254;SDS011;25973;52.368;4.940;2022-12-18T13:08:05;11.90;;;6.05;;
40254;SDS011;25973;52.368;4.940;2022-12-18T13:20:46;12.85;;;5.63;;
40254;SDS011;25973;52.368;4.940;2022-12-18T13:23:19;17.90;;;6.07;;
40254;SDS011;25973;52.368;4.940;2022-12-18T13:25:47;12.38;;;6.07;;
40254;SDS011;25973;52.368;4.940;2022-12-18T13:28:14;13.68;;;5.28;;
40254;SDS011;25973;52.368;4.940;2022-12-18T13:30:45;12.52;;;5.43;;
40254;SDS011;25973;52.368;4.940;2022-12-18T13:45:58;14.90;;;6.00;;
40254;SDS011;25973;52.368;4.940;2022-12-18T13:48:49;14.95;;;5.32;;
40254;SDS011;25973;52.368;4.940;2022-12-18T13:51:31;12.18;;;5.68;;
40254;SDS011;25973;52.368;4.940;2022-12-18T13:53:59;13.98;;;6.00;;
40254;SDS011;25973;52.368;4.940;2022-12-18T13:56:27;12.43;;;6.00;;
40254;SDS011;25973;52.368;4.940;2022-12-18T14:01:29;14.07;;;6.05;;
40254;SDS011;25973;52.368;4.940;2022-12-18T14:06:49;14.25;;;5.88;;
40254;SDS011;25973;52.368;4.940;2022-12-18T14:09:36;15.65;;;6.30;;
40254;SDS011;25973;52.368;4.940;2022-12-18T14:12:06;11.10;;;5.55;;
40254;SDS011;25973;52.368;4.940;2022-12-18T14:14:57;13.77;;;6.53;;
40254;SDS011;25973;52.368;4.940;2022-12-18T14:17:23;13.45;;;5.60;;
40254;SDS011;25973;52.368;4.940;2022-12-18T14:19:49;12.93;;;6.07;;
40254;SDS011;25973;52.368;4.940;2022-12-18T14:22:20;10.38;;;5.43;;
40254;SDS011;25973;52.368;4.940;2022-12-18T14:25:37;13.25;;;5.45;;
40254;SDS011;25973;52.368;4.940;2022-12-18T14:27:42;14.70;;;7.35;;
40254;SDS011;25973;52.368;4.940;2022-12-18T14:30:25;15.15;;;6.50;;
40254;SDS011;25973;52.368;4.940;2022-12-18T14:35:42;13.65;;;5.53;;
40254;SDS011;25973;52.368;4.940;2022-12-18T14:38:32;12.02;;;5.60;;
40254;SDS011;25973;52.368;4.940;2022-12-18T14:41:00;14.30;;;6.07;;
40254;SDS011;25973;52.368;4.940;2022-12-18T14:46:00;14.23;;;6.30;;
40254;SDS011;25973;52.368;4.940;2022-12-18T14:48:40;16.55;;;6.75;;
40254;SDS011;25973;52.368;4.940;2022-12-18T14:53:39;18.15;;;6.93;;
40254;SDS011;25973;52.368;4.940;2022-12-18T14:56:14;15.07;;;5.65;;
40254;SDS011;25973;52.368;4.940;2022-12-18T14:58:48;17.38;;;6.78;;
40254;SDS011;25973;52.368;4.940;2022-12-18T15:01:30;26.20;;;6.22;;
40254;SDS011;25973;52.368;4.940;2022-12-18T15:03:59;16.27;;;6.45;;
40254;SDS011;25973;52.368;4.940;2022-12-18T15:06:27;17.95;;;6.40;;
40254;SDS011;25973;52.368;4.940;2022-12-18T15:08:59;16.15;;;5.68;;
40254;SDS011;25973;52.368;4.940;2022-12-18T15:16:58;13.13;;;6.05;;
40254;SDS011;25973;52.368;4.940;2022-12-18T15:19:32;16.52;;;7.75;;
40254;SDS011;25973;52.368;4.940;2022-12-18T15:22:44;18.33;;;7.30;;
40254;SDS011;25973;52.368;4.940;2022-12-18T15:25:03;18.65;;;7.10;;
40254;SDS011;25973;52.368;4.940;2022-12-18T15:27:48;14.95;;;6.82;;
40254;SDS011;25973;52.368;4.940;2022-12-18T15:32:41;13.82;;;6.38;;
40254;SDS011;25973;52.368;4.940;2022-12-18T15:37:35;14.35;;;5.82;;
40254;SDS011;25973;52.368;4.940;2022-12-18T15:40:05;13.02;;;5.82;;
40254;SDS011;25973;52.368;4.940;2022-12-18T15:42:36;17.42;;;6.10;;
40254;SDS011;25973;52.368;4.940;2022-12-18T15:45:21;15.98;;;5.53;;
40254;SDS011;25973;52.368;4.940;2022-12-18T15:47:46;22.20;;;6.88;;
40254;SDS011;25973;52.368;4.940;2022-12-18T15:50:12;15.52;;;6.70;;
40254;SDS011;25973;52.368;4.940;2022-12-18T15:52:41;18.80;;;7.55;;
40254;SDS011;25973;52.368;4.940;2022-12-18T15:55:20;19.05;;;7.43;;
40254;SDS011;25973;52.368;4.940;2022-12-18T15:58:06;15.48;;;6.50;;
40254;SDS011;25973;52.368;4.940;2022-12-18T16:00:34;22.38;;;7.15;;
40254;SDS011;25973;52.368;4.940;2022-12-18T16:03:01;15.60;;;6.65;;
40254;SDS011;25973;52.368;4.940;2022-12-18T16:05:28;16.48;;;7.32;;
40254;SDS011;25973;52.368;4.940;2022-12-18T16:07:54;15.50;;;7.05;;
40254;SDS011;25973;52.368;4.940;2022-12-18T16:10:20;19.65;;;7.85;;
40254;SDS011;25973;52.368;4.940;2022-12-18T16:12:45;15.55;;;7.00;;
40254;SDS011;25973;52.368;4.940;2022-12-18T16:15:14;24.35;;;8.43;;
40254;SDS011;25973;52.368;4.940;2022-12-18T16:17:41;16.83;;;7.15;;
40254;SDS011;25973;52.368;4.940;2022-12-18T16:20:18;17.27;;;8.45;;
40254;SDS011;25973;52.368;4.940;2022-12-18T16:22:46;18.83;;;8.35;;
40254;SDS011;25973;52.368;4.940;2022-12-18T16:25:20;15.35;;;7.30;;
40254;SDS011;25973;52.368;4.940;2022-12-18T16:27:51;18.70;;;7.93;;
40254;SDS011;25973;52.368;4.940;2022-12-18T16:30:19;15.95;;;7.00;;
40254;SDS011;25973;52.368;4.940;2022-12-18T16:32:46;14.10;;;6.60;;
40254;SDS011;25973;52.368;4.940;2022-12-18T16:35:13;15.52;;;7.72;;
40254;SDS011;25973;52.368;4.940;2022-12-18T16:37:39;18.30;;;7.55;;
40254;SDS011;25973;52.368;4.940;2022-12-18T16:40:06;14.73;;;6.85;;